sensor_id;sensor_type;location;lat;lon;timestamp;temperature;humidity
37998;DHT22;24079;51.824;4.682;2022-09-16T00:00:35;14.10;99.90
37998;DHT22;24079;51.824;4.682;2022-09-16T00:03:01;14.10;99.90
37998;DHT22;24079;51.824;4.682;2022-09-16T00:05:27;14.10;99.90
37998;DHT22;24079;51.824;4.682;2022-09-16T00:07:53;14.10;99.90
37998;DHT22;24079;51.824;4.682;2022-09-16T00:10:18;14.10;99.90
37998;DHT22;24079;51.824;4.682;2022-09-16T00:12:45;14.00;99.90
37998;DHT22;24079;51.824;4.682;2022-09-16T00:15:12;14.00;99.90
37998;DHT22;24079;51.824;4.682;2022-09-16T00:17:38;14.00;99.90
37998;DHT22;24079;51.824;4.682;2022-09-16T00:20:05;14.00;99.90
37998;DHT22;24079;51.824;4.682;2022-09-16T00:22:30;13.90;99.90
37998;DHT22;24079;51.824;4.682;2022-09-16T00:24:56;13.90;99.90
37998;DHT22;24079;51.824;4.682;2022-09-16T00:27:22;13.80;99.90
37998;DHT22;24079;51.824;4.682;2022-09-16T00:29:47;13.80;99.90
37998;DHT22;24079;51.824;4.682;2022-09-16T00:32:13;13.80;99.90
37998;DHT22;24079;51.824;4.682;2022-09-16T00:34:39;13.90;99.90
37998;DHT22;24079;51.824;4.682;2022-09-16T00:37:05;13.80;99.90
37998;DHT22;24079;51.824;4.682;2022-09-16T00:39:33;13.80;99.90
37998;DHT22;24079;51.824;4.682;2022-09-16T00:42:00;13.80;99.90
37998;DHT22;24079;51.824;4.682;2022-09-16T00:47:15;13.90;99.90
37998;DHT22;24079;51.824;4.682;2022-09-16T00:49:42;13.90;99.90
37998;DHT22;24079;51.824;4.682;2022-09-16T00:52:09;13.90;99.90
37998;DHT22;24079;51.824;4.682;2022-09-16T00:54:37;14.00;99.90
37998;DHT22;24079;51.824;4.682;2022-09-16T00:57:04;14.00;99.90
37998;DHT22;24079;51.824;4.682;2022-09-16T00:59:33;13.90;99.90
37998;DHT22;24079;51.824;4.682;2022-09-16T01:02:11;14.00;99.90
37998;DHT22;24079;51.824;4.682;2022-09-16T01:04:59;14.00;99.90
37998;DHT22;24079;51.824;4.682;2022-09-16T01:07:33;14.00;99.90
37998;DHT22;24079;51.824;4.682;2022-09-16T01:10:00;14.00;99.90
37998;DHT22;24079;51.824;4.682;2022-09-16T01:12:27;14.00;99.90
37998;DHT22;24079;51.824;4.682;2022-09-16T01:14:55;14.10;99.90
37998;DHT22;24079;51.824;4.682;2022-09-16T01:22:57;14.10;99.90
37998;DHT22;24079;51.824;4.682;2022-09-16T01:25:24;14.20;99.90
37998;DHT22;24079;51.824;4.682;2022-09-16T01:28:02;14.10;99.90
37998;DHT22;24079;51.824;4.682;2022-09-16T01:31:25;14.20;99.90
37998;DHT22;24079;51.824;4.682;2022-09-16T01:33:45;14.10;99.90
37998;DHT22;24079;51.824;4.682;2022-09-16T01:44:48;14.10;99.90
37998;DHT22;24079;51.824;4.682;2022-09-16T01:55:50;14.10;99.90
37998;DHT22;24079;51.824;4.682;2022-09-16T02:01:04;14.20;99.90
37998;DHT22;24079;51.824;4.682;2022-09-16T02:03:35;14.30;99.90
37998;DHT22;24079;51.824;4.682;2022-09-16T02:06:07;14.30;99.90
37998;DHT22;24079;51.824;4.682;2022-09-16T02:11:29;14.20;99.90
37998;DHT22;24079;51.824;4.682;2022-09-16T02:14:03;14.00;99.90
37998;DHT22;24079;51.824;4.682;2022-09-16T02:16:40;14.00;99.90
37998;DHT22;24079;51.824;4.682;2022-09-16T02:19:15;14.00;99.90
37998;DHT22;24079;51.824;4.682;2022-09-16T02:21:43;14.00;99.90
37998;DHT22;24079;51.824;4.682;2022-09-16T02:24:14;13.90;99.90
37998;DHT22;24079;51.824;4.682;2022-09-16T02:26:44;13.90;99.90
37998;DHT22;24079;51.824;4.682;2022-09-16T02:29:19;13.90;99.90
37998;DHT22;24079;51.824;4.682;2022-09-16T02:31:45;13.90;99.90
37998;DHT22;24079;51.824;4.682;2022-09-16T02:34:18;13.90;99.90
37998;DHT22;24079;51.824;4.682;2022-09-16T02:36:47;13.90;99.90
37998;DHT22;24079;51.824;4.682;2022-09-16T02:39:17;13.90;99.90
37998;DHT22;24079;51.824;4.682;2022-09-16T02:41:44;13.90;99.90
37998;DHT22;24079;51.824;4.682;2022-09-16T02:44:14;13.90;99.90
37998;DHT22;24079;51.824;4.682;2022-09-16T02:46:46;13.90;99.90
37998;DHT22;24079;51.824;4.682;2022-09-16T02:49:27;13.90;99.90
37998;DHT22;24079;51.824;4.682;2022-09-16T02:52:37;13.90;99.90
37998;DHT22;24079;51.824;4.682;2022-09-16T02:55:29;13.90;99.90
37998;DHT22;24079;51.824;4.682;2022-09-16T02:57:58;13.90;99.90
37998;DHT22;24079;51.824;4.682;2022-09-16T03:00:24;13.90;99.90
37998;DHT22;24079;51.824;4.682;2022-09-16T03:02:52;13.90;99.90
37998;DHT22;24079;51.824;4.682;2022-09-16T03:05:18;13.90;99.90
37998;DHT22;24079;51.824;4.682;2022-09-16T03:07:44;13.80;99.90
37998;DHT22;24079;51.824;4.682;2022-09-16T03:10:11;13.80;99.90
37998;DHT22;24079;51.824;4.682;2022-09-16T03:18:49;13.70;99.90
37998;DHT22;24079;51.824;4.682;2022-09-16T03:27:17;13.70;99.90
37998;DHT22;24079;51.824;4.682;2022-09-16T03:30:04;13.70;99.90
37998;DHT22;24079;51.824;4.682;2022-09-16T03:32:35;13.60;99.90
37998;DHT22;24079;51.824;4.682;2022-09-16T03:35:12;13.60;99.90
37998;DHT22;24079;51.824;4.682;2022-09-16T03:37:43;13.60;99.90
37998;DHT22;24079;51.824;4.682;2022-09-16T03:40:12;13.60;99.90
37998;DHT22;24079;51.824;4.682;2022-09-16T03:42:42;13.60;99.90
37998;DHT22;24079;51.824;4.682;2022-09-16T03:45:13;13.60;99.90
37998;DHT22;24079;51.824;4.682;2022-09-16T03:47:39;13.60;99.90
37998;DHT22;24079;51.824;4.682;2022-09-16T03:50:05;13.50;99.90
37998;DHT22;24079;51.824;4.682;2022-09-16T03:52:30;13.60;99.90
37998;DHT22;24079;51.824;4.682;2022-09-16T03:54:56;13.60;99.90
37998;DHT22;24079;51.824;4.682;2022-09-16T03:57:21;13.60;99.90
37998;DHT22;24079;51.824;4.682;2022-09-16T03:59:47;13.60;99.90
37998;DHT22;24079;51.824;4.682;2022-09-16T04:02:13;13.60;99.90
37998;DHT22;24079;51.824;4.682;2022-09-16T04:04:38;13.70;99.90
37998;DHT22;24079;51.824;4.682;2022-09-16T04:07:04;13.60;99.90
37998;DHT22;24079;51.824;4.682;2022-09-16T04:09:30;13.70;99.90
37998;DHT22;24079;51.824;4.682;2022-09-16T04:11:55;13.50;99.90
37998;DHT22;24079;51.824;4.682;2022-09-16T04:14:21;13.50;99.90
37998;DHT22;24079;51.824;4.682;2022-09-16T04:16:46;13.40;99.90
37998;DHT22;24079;51.824;4.682;2022-09-16T04:19:12;13.40;99.90
37998;DHT22;24079;51.824;4.682;2022-09-16T04:21:39;13.40;99.90
37998;DHT22;24079;51.824;4.682;2022-09-16T04:24:05;13.40;99.90
37998;DHT22;24079;51.824;4.682;2022-09-16T04:26:31;13.40;99.90
37998;DHT22;24079;51.824;4.682;2022-09-16T04:28:56;13.50;99.90
37998;DHT22;24079;51.824;4.682;2022-09-16T04:31:22;13.50;99.90
37998;DHT22;24079;51.824;4.682;2022-09-16T04:33:47;13.50;99.90
37998;DHT22;24079;51.824;4.682;2022-09-16T04:36:15;13.50;99.90
37998;DHT22;24079;51.824;4.682;2022-09-16T04:38:42;13.40;99.90
37998;DHT22;24079;51.824;4.682;2022-09-16T04:41:13;13.40;99.90
37998;DHT22;24079;51.824;4.682;2022-09-16T04:43:38;13.30;99.90
37998;DHT22;24079;51.824;4.682;2022-09-16T04:46:05;13.30;99.90
37998;DHT22;24079;51.824;4.682;2022-09-16T04:48:31;13.30;99.90
37998;DHT22;24079;51.824;4.682;2022-09-16T04:51:16;13.30;99.90
37998;DHT22;24079;51.824;4.682;2022-09-16T04:53:42;13.30;99.90
37998;DHT22;24079;51.824;4.682;2022-09-16T04:56:16;13.40;99.90
37998;DHT22;24079;51.824;4.682;2022-09-16T04:58:44;13.40;99.90
37998;DHT22;24079;51.824;4.682;2022-09-16T05:01:13;13.30;99.90
37998;DHT22;24079;51.824;4.682;2022-09-16T05:03:44;13.30;99.90
37998;DHT22;24079;51.824;4.682;2022-09-16T05:06:15;13.20;99.90
37998;DHT22;24079;51.824;4.682;2022-09-16T05:08:41;13.20;99.90
37998;DHT22;24079;51.824;4.682;2022-09-16T05:11:09;13.10;99.90
37998;DHT22;24079;51.824;4.682;2022-09-16T05:13:36;13.10;99.90
37998;DHT22;24079;51.824;4.682;2022-09-16T05:16:03;13.20;99.90
37998;DHT22;24079;51.824;4.682;2022-09-16T05:18:29;13.20;99.90
37998;DHT22;24079;51.824;4.682;2022-09-16T05:20:59;13.10;99.90
37998;DHT22;24079;51.824;4.682;2022-09-16T05:23:26;13.10;99.90
37998;DHT22;24079;51.824;4.682;2022-09-16T05:25:52;13.10;99.90
37998;DHT22;24079;51.824;4.682;2022-09-16T05:28:18;13.10;99.90
37998;DHT22;24079;51.824;4.682;2022-09-16T05:30:44;13.10;99.90
37998;DHT22;24079;51.824;4.682;2022-09-16T05:33:10;13.20;99.90
37998;DHT22;24079;51.824;4.682;2022-09-16T05:35:35;13.20;99.90
37998;DHT22;24079;51.824;4.682;2022-09-16T05:38:01;13.20;99.90
37998;DHT22;24079;51.824;4.682;2022-09-16T05:40:27;13.20;99.90
37998;DHT22;24079;51.824;4.682;2022-09-16T05:42:53;13.30;99.90
37998;DHT22;24079;51.824;4.682;2022-09-16T05:45:20;13.30;99.90
37998;DHT22;24079;51.824;4.682;2022-09-16T05:47:48;13.30;99.90
37998;DHT22;24079;51.824;4.682;2022-09-16T05:50:15;13.20;99.90
37998;DHT22;24079;51.824;4.682;2022-09-16T05:52:40;13.20;99.90
37998;DHT22;24079;51.824;4.682;2022-09-16T05:55:06;13.20;99.90
37998;DHT22;24079;51.824;4.682;2022-09-16T05:57:32;13.20;99.90
37998;DHT22;24079;51.824;4.682;2022-09-16T05:59:58;13.20;99.90
37998;DHT22;24079;51.824;4.682;2022-09-16T06:02:23;13.20;99.90
37998;DHT22;24079;51.824;4.682;2022-09-16T06:04:49;13.30;99.90
37998;DHT22;24079;51.824;4.682;2022-09-16T06:07:15;13.40;99.90
37998;DHT22;24079;51.824;4.682;2022-09-16T06:09:41;13.50;99.90
37998;DHT22;24079;51.824;4.682;2022-09-16T06:12:08;13.70;99.90
37998;DHT22;24079;51.824;4.682;2022-09-16T06:14:34;13.70;99.90
37998;DHT22;24079;51.824;4.682;2022-09-16T06:17:00;13.80;99.90
37998;DHT22;24079;51.824;4.682;2022-09-16T06:19:26;13.80;99.90
37998;DHT22;24079;51.824;4.682;2022-09-16T06:21:52;13.70;99.90
37998;DHT22;24079;51.824;4.682;2022-09-16T06:24:19;13.70;99.90
37998;DHT22;24079;51.824;4.682;2022-09-16T06:26:46;13.70;99.90
37998;DHT22;24079;51.824;4.682;2022-09-16T06:29:13;13.70;99.90
37998;DHT22;24079;51.824;4.682;2022-09-16T06:31:39;13.70;99.90
37998;DHT22;24079;51.824;4.682;2022-09-16T06:34:06;13.80;99.90
37998;DHT22;24079;51.824;4.682;2022-09-16T06:36:37;13.80;99.90
37998;DHT22;24079;51.824;4.682;2022-09-16T06:39:03;13.80;99.90
37998;DHT22;24079;51.824;4.682;2022-09-16T06:41:31;13.70;99.90
37998;DHT22;24079;51.824;4.682;2022-09-16T06:43:58;13.70;99.90
37998;DHT22;24079;51.824;4.682;2022-09-16T06:46:25;13.70;99.90
37998;DHT22;24079;51.824;4.682;2022-09-16T06:48:54;13.60;99.90
37998;DHT22;24079;51.824;4.682;2022-09-16T06:51:26;13.60;99.90
37998;DHT22;24079;51.824;4.682;2022-09-16T06:53:53;13.60;99.90
37998;DHT22;24079;51.824;4.682;2022-09-16T06:56:21;13.70;99.90
37998;DHT22;24079;51.824;4.682;2022-09-16T06:58:49;14.00;99.90
37998;DHT22;24079;51.824;4.682;2022-09-16T07:01:20;14.20;99.90
37998;DHT22;24079;51.824;4.682;2022-09-16T07:03:48;14.50;99.90
37998;DHT22;24079;51.824;4.682;2022-09-16T07:06:15;14.90;99.90
37998;DHT22;24079;51.824;4.682;2022-09-16T07:08:41;15.60;99.90
37998;DHT22;24079;51.824;4.682;2022-09-16T07:11:19;16.50;99.90
37998;DHT22;24079;51.824;4.682;2022-09-16T07:13:45;17.00;99.90
37998;DHT22;24079;51.824;4.682;2022-09-16T07:16:16;17.80;99.90
37998;DHT22;24079;51.824;4.682;2022-09-16T07:18:42;18.20;99.90
37998;DHT22;24079;51.824;4.682;2022-09-16T07:21:10;18.80;99.90
37998;DHT22;24079;51.824;4.682;2022-09-16T07:23:38;19.00;99.90
37998;DHT22;24079;51.824;4.682;2022-09-16T07:26:27;19.20;99.90
37998;DHT22;24079;51.824;4.682;2022-09-16T07:28:53;19.90;99.90
37998;DHT22;24079;51.824;4.682;2022-09-16T07:31:24;20.20;99.90
37998;DHT22;24079;51.824;4.682;2022-09-16T07:33:52;20.40;99.90
37998;DHT22;24079;51.824;4.682;2022-09-16T07:36:22;20.70;99.90
37998;DHT22;24079;51.824;4.682;2022-09-16T07:38:48;21.10;99.90
37998;DHT22;24079;51.824;4.682;2022-09-16T07:41:25;22.00;99.90
37998;DHT22;24079;51.824;4.682;2022-09-16T07:43:53;21.90;99.90
37998;DHT22;24079;51.824;4.682;2022-09-16T07:46:19;21.20;99.90
37998;DHT22;24079;51.824;4.682;2022-09-16T07:48:47;20.20;99.90
37998;DHT22;24079;51.824;4.682;2022-09-16T07:51:16;18.70;99.90
37998;DHT22;24079;51.824;4.682;2022-09-16T07:53:42;17.60;99.90
37998;DHT22;24079;51.824;4.682;2022-09-16T07:56:18;16.50;99.90
37998;DHT22;24079;51.824;4.682;2022-09-16T07:58:45;16.00;99.90
37998;DHT22;24079;51.824;4.682;2022-09-16T08:01:12;15.50;99.90
37998;DHT22;24079;51.824;4.682;2022-09-16T08:03:39;15.10;99.90
37998;DHT22;24079;51.824;4.682;2022-09-16T08:06:11;15.00;99.90
37998;DHT22;24079;51.824;4.682;2022-09-16T08:08:37;14.90;99.90
37998;DHT22;24079;51.824;4.682;2022-09-16T08:11:03;15.00;99.90
37998;DHT22;24079;51.824;4.682;2022-09-16T08:13:31;15.50;99.90
37998;DHT22;24079;51.824;4.682;2022-09-16T08:16:05;16.10;99.90
37998;DHT22;24079;51.824;4.682;2022-09-16T08:18:32;16.10;99.90
37998;DHT22;24079;51.824;4.682;2022-09-16T08:21:03;17.00;99.90
37998;DHT22;24079;51.824;4.682;2022-09-16T08:23:28;17.90;99.90
37998;DHT22;24079;51.824;4.682;2022-09-16T08:25:58;18.20;99.90
37998;DHT22;24079;51.824;4.682;2022-09-16T08:28:24;18.30;99.90
37998;DHT22;24079;51.824;4.682;2022-09-16T08:30:50;17.50;99.90
37998;DHT22;24079;51.824;4.682;2022-09-16T08:33:16;17.40;99.90
37998;DHT22;24079;51.824;4.682;2022-09-16T08:35:46;17.40;99.90
37998;DHT22;24079;51.824;4.682;2022-09-16T08:38:12;17.40;99.90
37998;DHT22;24079;51.824;4.682;2022-09-16T08:40:43;17.40;99.90
37998;DHT22;24079;51.824;4.682;2022-09-16T08:45:56;17.80;99.90
37998;DHT22;24079;51.824;4.682;2022-09-16T08:48:37;17.40;99.90
37998;DHT22;24079;51.824;4.682;2022-09-16T08:51:09;17.00;99.90
37998;DHT22;24079;51.824;4.682;2022-09-16T08:56:27;16.20;99.90
37998;DHT22;24079;51.824;4.682;2022-09-16T08:58:58;15.70;99.90
37998;DHT22;24079;51.824;4.682;2022-09-16T09:01:34;15.30;99.90
37998;DHT22;24079;51.824;4.682;2022-09-16T09:04:01;15.20;99.90
37998;DHT22;24079;51.824;4.682;2022-09-16T09:15:34;15.50;99.90
37998;DHT22;24079;51.824;4.682;2022-09-16T09:21:15;16.10;99.90
37998;DHT22;24079;51.824;4.682;2022-09-16T09:26:50;16.60;99.90
37998;DHT22;24079;51.824;4.682;2022-09-16T09:32:09;16.20;99.90
37998;DHT22;24079;51.824;4.682;2022-09-16T09:35:02;15.60;99.90
37998;DHT22;24079;51.824;4.682;2022-09-16T09:40:36;15.40;99.90
37998;DHT22;24079;51.824;4.682;2022-09-16T09:43:05;15.20;99.90
37998;DHT22;24079;51.824;4.682;2022-09-16T09:45:41;15.20;99.90
37998;DHT22;24079;51.824;4.682;2022-09-16T09:48:24;15.30;99.90
37998;DHT22;24079;51.824;4.682;2022-09-16T09:50:52;15.40;99.90
37998;DHT22;24079;51.824;4.682;2022-09-16T09:53:23;15.40;99.90
37998;DHT22;24079;51.824;4.682;2022-09-16T09:55:58;15.20;99.90
37998;DHT22;24079;51.824;4.682;2022-09-16T09:58:32;14.90;99.90
37998;DHT22;24079;51.824;4.682;2022-09-16T10:01:00;14.80;99.90
37998;DHT22;24079;51.824;4.682;2022-09-16T10:03:27;14.60;99.90
37998;DHT22;24079;51.824;4.682;2022-09-16T10:05:53;14.50;99.90
37998;DHT22;24079;51.824;4.682;2022-09-16T10:08:48;14.60;99.90
37998;DHT22;24079;51.824;4.682;2022-09-16T10:11:23;14.70;99.90
37998;DHT22;24079;51.824;4.682;2022-09-16T10:13:51;14.80;99.90
37998;DHT22;24079;51.824;4.682;2022-09-16T10:16:20;15.10;99.90
37998;DHT22;24079;51.824;4.682;2022-09-16T10:21:21;15.80;99.90
37998;DHT22;24079;51.824;4.682;2022-09-16T10:23:56;16.30;99.90
37998;DHT22;24079;51.824;4.682;2022-09-16T10:26:25;16.60;99.90
37998;DHT22;24079;51.824;4.682;2022-09-16T10:29:00;17.00;99.90
37998;DHT22;24079;51.824;4.682;2022-09-16T10:31:34;16.80;99.90
37998;DHT22;24079;51.824;4.682;2022-09-16T10:34:02;16.40;99.90
37998;DHT22;24079;51.824;4.682;2022-09-16T10:36:32;16.60;99.90
37998;DHT22;24079;51.824;4.682;2022-09-16T10:39:00;17.00;99.90
37998;DHT22;24079;51.824;4.682;2022-09-16T10:41:28;17.30;99.90
37998;DHT22;24079;51.824;4.682;2022-09-16T10:44:01;17.70;99.90
37998;DHT22;24079;51.824;4.682;2022-09-16T10:46:28;17.50;99.90
37998;DHT22;24079;51.824;4.682;2022-09-16T10:48:59;17.20;99.90
37998;DHT22;24079;51.824;4.682;2022-09-16T10:51:28;17.10;99.90
37998;DHT22;24079;51.824;4.682;2022-09-16T10:53:57;17.00;99.90
37998;DHT22;24079;51.824;4.682;2022-09-16T10:56:28;16.70;99.90
37998;DHT22;24079;51.824;4.682;2022-09-16T10:59:23;16.40;99.90
37998;DHT22;24079;51.824;4.682;2022-09-16T11:02:24;16.20;99.90
37998;DHT22;24079;51.824;4.682;2022-09-16T11:13:11;16.80;99.90
37998;DHT22;24079;51.824;4.682;2022-09-16T11:32:47;17.30;99.90
37998;DHT22;24079;51.824;4.682;2022-09-16T11:40:50;17.90;99.90
37998;DHT22;24079;51.824;4.682;2022-09-16T11:51:50;16.80;99.90
37998;DHT22;24079;51.824;4.682;2022-09-16T11:54:31;16.80;99.90
37998;DHT22;24079;51.824;4.682;2022-09-16T11:57:04;16.90;99.90
37998;DHT22;24079;51.824;4.682;2022-09-16T11:59:43;17.20;99.90
37998;DHT22;24079;51.824;4.682;2022-09-16T12:02:34;17.60;99.90
37998;DHT22;24079;51.824;4.682;2022-09-16T12:07:55;17.80;99.90
37998;DHT22;24079;51.824;4.682;2022-09-16T12:13:04;17.30;99.90
37998;DHT22;24079;51.824;4.682;2022-09-16T12:15:39;16.70;99.90
37998;DHT22;24079;51.824;4.682;2022-09-16T12:18:18;16.10;99.90
37998;DHT22;24079;51.824;4.682;2022-09-16T12:20:52;16.00;99.90
37998;DHT22;24079;51.824;4.682;2022-09-16T12:23:24;16.00;99.90
37998;DHT22;24079;51.824;4.682;2022-09-16T12:29:10;15.90;99.90
37998;DHT22;24079;51.824;4.682;2022-09-16T12:31:41;15.70;99.90
37998;DHT22;24079;51.824;4.682;2022-09-16T12:34:12;15.70;99.90
37998;DHT22;24079;51.824;4.682;2022-09-16T12:36:48;15.80;99.90
37998;DHT22;24079;51.824;4.682;2022-09-16T12:39:16;15.90;99.90
37998;DHT22;24079;51.824;4.682;2022-09-16T14:22:15;14.30;99.90
37998;DHT22;24079;51.824;4.682;2022-09-16T14:24:45;14.30;99.90
37998;DHT22;24079;51.824;4.682;2022-09-16T14:30:00;14.40;99.90
37998;DHT22;24079;51.824;4.682;2022-09-16T14:32:31;14.40;99.90
37998;DHT22;24079;51.824;4.682;2022-09-16T14:35:02;14.30;99.90
37998;DHT22;24079;51.824;4.682;2022-09-16T14:37:29;14.20;99.90
37998;DHT22;24079;51.824;4.682;2022-09-16T14:40:03;14.10;99.90
37998;DHT22;24079;51.824;4.682;2022-09-16T14:42:30;14.10;99.90
37998;DHT22;24079;51.824;4.682;2022-09-16T14:44:56;14.20;99.90
37998;DHT22;24079;51.824;4.682;2022-09-16T14:47:28;14.20;99.90
37998;DHT22;24079;51.824;4.682;2022-09-16T14:50:00;14.20;99.90
37998;DHT22;24079;51.824;4.682;2022-09-16T14:52:28;14.10;99.90
37998;DHT22;24079;51.824;4.682;2022-09-16T14:54:57;14.00;99.90
37998;DHT22;24079;51.824;4.682;2022-09-16T14:57:25;14.10;99.90
37998;DHT22;24079;51.824;4.682;2022-09-16T14:59:55;14.10;99.90
37998;DHT22;24079;51.824;4.682;2022-09-16T15:02:31;14.10;99.90
37998;DHT22;24079;51.824;4.682;2022-09-16T15:05:19;14.00;99.90
37998;DHT22;24079;51.824;4.682;2022-09-16T15:07:47;14.10;99.90
37998;DHT22;24079;51.824;4.682;2022-09-16T15:10:21;14.10;99.90
37998;DHT22;24079;51.824;4.682;2022-09-16T15:12:57;14.20;99.90
37998;DHT22;24079;51.824;4.682;2022-09-16T15:15:29;14.30;99.90
37998;DHT22;24079;51.824;4.682;2022-09-16T15:20:28;14.20;99.90
37998;DHT22;24079;51.824;4.682;2022-09-16T15:22:54;14.30;99.90
37998;DHT22;24079;51.824;4.682;2022-09-16T15:25:22;14.50;99.90
37998;DHT22;24079;51.824;4.682;2022-09-16T15:27:48;14.60;99.90
37998;DHT22;24079;51.824;4.682;2022-09-16T15:30:25;14.60;99.90
37998;DHT22;24079;51.824;4.682;2022-09-16T15:32:51;14.80;99.90
37998;DHT22;24079;51.824;4.682;2022-09-16T15:35:28;14.70;99.90
37998;DHT22;24079;51.824;4.682;2022-09-16T15:37:56;14.70;99.90
37998;DHT22;24079;51.824;4.682;2022-09-16T15:43:10;15.20;99.90
37998;DHT22;24079;51.824;4.682;2022-09-16T15:45:36;15.50;99.90
37998;DHT22;24079;51.824;4.682;2022-09-16T15:48:20;15.70;99.90
37998;DHT22;24079;51.824;4.682;2022-09-16T15:50:55;15.60;99.90
37998;DHT22;24079;51.824;4.682;2022-09-16T15:56:01;15.10;99.90
37998;DHT22;24079;51.824;4.682;2022-09-16T16:06:11;14.70;99.90
37998;DHT22;24079;51.824;4.682;2022-09-16T16:08:50;14.80;99.90
37998;DHT22;24079;51.824;4.682;2022-09-16T16:11:19;14.80;99.90
37998;DHT22;24079;51.824;4.682;2022-09-16T16:13:46;14.90;99.90
37998;DHT22;24079;51.824;4.682;2022-09-16T16:16:13;14.90;99.90
37998;DHT22;24079;51.824;4.682;2022-09-16T16:18:43;15.00;99.90
37998;DHT22;24079;51.824;4.682;2022-09-16T16:21:12;15.10;99.90
37998;DHT22;24079;51.824;4.682;2022-09-16T16:23:38;15.00;99.90
37998;DHT22;24079;51.824;4.682;2022-09-16T16:26:05;15.00;99.90
37998;DHT22;24079;51.824;4.682;2022-09-16T16:28:31;15.00;99.90
37998;DHT22;24079;51.824;4.682;2022-09-16T16:31:26;15.00;99.90
37998;DHT22;24079;51.824;4.682;2022-09-16T16:33:52;15.10;99.90
37998;DHT22;24079;51.824;4.682;2022-09-16T16:36:18;15.10;99.90
37998;DHT22;24079;51.824;4.682;2022-09-16T16:38:46;15.10;99.90
37998;DHT22;24079;51.824;4.682;2022-09-16T16:41:21;15.10;99.90
37998;DHT22;24079;51.824;4.682;2022-09-16T16:43:47;15.10;99.90
37998;DHT22;24079;51.824;4.682;2022-09-16T16:46:13;15.00;99.90
37998;DHT22;24079;51.824;4.682;2022-09-16T16:48:39;15.10;99.90
37998;DHT22;24079;51.824;4.682;2022-09-16T16:51:07;15.10;99.90
37998;DHT22;24079;51.824;4.682;2022-09-16T17:46:46;14.30;99.90
37998;DHT22;24079;51.824;4.682;2022-09-16T17:49:22;14.30;99.90
37998;DHT22;24079;51.824;4.682;2022-09-16T17:51:49;14.40;99.90
37998;DHT22;24079;51.824;4.682;2022-09-16T17:54:15;14.40;99.90
37998;DHT22;24079;51.824;4.682;2022-09-16T17:56:41;14.40;99.90
37998;DHT22;24079;51.824;4.682;2022-09-16T17:59:07;14.40;99.90
37998;DHT22;24079;51.824;4.682;2022-09-16T18:01:35;14.40;99.90
37998;DHT22;24079;51.824;4.682;2022-09-16T18:04:00;14.50;99.90
37998;DHT22;24079;51.824;4.682;2022-09-16T18:06:29;14.40;99.90
37998;DHT22;24079;51.824;4.682;2022-09-16T18:08:58;14.40;99.90
37998;DHT22;24079;51.824;4.682;2022-09-16T18:11:24;14.40;99.90
37998;DHT22;24079;51.824;4.682;2022-09-16T18:13:55;14.40;99.90
37998;DHT22;24079;51.824;4.682;2022-09-16T18:16:21;14.30;99.90
37998;DHT22;24079;51.824;4.682;2022-09-16T18:18:56;14.30;99.90
37998;DHT22;24079;51.824;4.682;2022-09-16T18:21:22;14.40;99.90
37998;DHT22;24079;51.824;4.682;2022-09-16T18:23:56;14.30;99.90
37998;DHT22;24079;51.824;4.682;2022-09-16T18:26:22;14.30;99.90
37998;DHT22;24079;51.824;4.682;2022-09-16T18:28:49;14.20;99.90
37998;DHT22;24079;51.824;4.682;2022-09-16T18:31:20;14.20;99.90
37998;DHT22;24079;51.824;4.682;2022-09-16T18:33:50;14.30;99.90
37998;DHT22;24079;51.824;4.682;2022-09-16T18:36:16;14.30;99.90
37998;DHT22;24079;51.824;4.682;2022-09-16T18:38:42;14.30;99.90
37998;DHT22;24079;51.824;4.682;2022-09-16T18:41:09;14.30;99.90
37998;DHT22;24079;51.824;4.682;2022-09-16T18:43:37;14.30;99.90
37998;DHT22;24079;51.824;4.682;2022-09-16T18:46:11;14.30;99.90
37998;DHT22;24079;51.824;4.682;2022-09-16T18:48:38;14.30;99.90
37998;DHT22;24079;51.824;4.682;2022-09-16T18:51:04;14.30;99.90
37998;DHT22;24079;51.824;4.682;2022-09-16T18:53:30;14.30;99.90
37998;DHT22;24079;51.824;4.682;2022-09-16T18:55:56;14.20;99.90
37998;DHT22;24079;51.824;4.682;2022-09-16T18:58:22;14.20;99.90
37998;DHT22;24079;51.824;4.682;2022-09-16T19:00:47;14.10;99.90
37998;DHT22;24079;51.824;4.682;2022-09-16T19:03:14;14.10;99.90
37998;DHT22;24079;51.824;4.682;2022-09-16T19:05:52;14.10;99.90
37998;DHT22;24079;51.824;4.682;2022-09-16T19:08:18;14.20;99.90
37998;DHT22;24079;51.824;4.682;2022-09-16T19:10:44;14.20;99.90
37998;DHT22;24079;51.824;4.682;2022-09-16T19:13:10;14.20;99.90
37998;DHT22;24079;51.824;4.682;2022-09-16T19:15:35;14.20;99.90
37998;DHT22;24079;51.824;4.682;2022-09-16T19:18:01;14.10;99.90
37998;DHT22;24079;51.824;4.682;2022-09-16T19:20:26;13.80;99.90
37998;DHT22;24079;51.824;4.682;2022-09-16T19:22:52;13.70;99.90
37998;DHT22;24079;51.824;4.682;2022-09-16T19:25:17;13.60;99.90
37998;DHT22;24079;51.824;4.682;2022-09-16T19:27:43;13.40;99.90
37998;DHT22;24079;51.824;4.682;2022-09-16T19:30:09;13.30;99.90
37998;DHT22;24079;51.824;4.682;2022-09-16T19:32:34;13.30;99.90
37998;DHT22;24079;51.824;4.682;2022-09-16T19:35:00;13.20;99.90
37998;DHT22;24079;51.824;4.682;2022-09-16T19:37:26;13.20;99.90
37998;DHT22;24079;51.824;4.682;2022-09-16T19:39:51;13.20;99.90
37998;DHT22;24079;51.824;4.682;2022-09-16T19:42:17;13.10;99.90
37998;DHT22;24079;51.824;4.682;2022-09-16T19:44:42;13.10;99.90
37998;DHT22;24079;51.824;4.682;2022-09-16T19:47:08;13.10;99.90
37998;DHT22;24079;51.824;4.682;2022-09-16T19:49:34;13.10;99.90
37998;DHT22;24079;51.824;4.682;2022-09-16T19:51:59;13.10;99.90
37998;DHT22;24079;51.824;4.682;2022-09-16T19:54:25;13.10;99.90
37998;DHT22;24079;51.824;4.682;2022-09-16T19:56:50;13.10;99.90
37998;DHT22;24079;51.824;4.682;2022-09-16T19:59:17;13.10;99.90
37998;DHT22;24079;51.824;4.682;2022-09-16T20:01:43;13.10;99.90
37998;DHT22;24079;51.824;4.682;2022-09-16T20:04:09;13.10;99.90
37998;DHT22;24079;51.824;4.682;2022-09-16T20:06:40;13.10;99.90
37998;DHT22;24079;51.824;4.682;2022-09-16T20:09:09;13.10;99.90
37998;DHT22;24079;51.824;4.682;2022-09-16T20:11:40;13.10;99.90
37998;DHT22;24079;51.824;4.682;2022-09-16T20:14:10;13.10;99.90
37998;DHT22;24079;51.824;4.682;2022-09-16T20:16:38;13.10;99.90
37998;DHT22;24079;51.824;4.682;2022-09-16T20:19:06;13.00;99.90
37998;DHT22;24079;51.824;4.682;2022-09-16T20:21:32;13.10;99.90
37998;DHT22;24079;51.824;4.682;2022-09-16T20:24:00;13.00;99.90
37998;DHT22;24079;51.824;4.682;2022-09-16T20:26:26;13.00;99.90
37998;DHT22;24079;51.824;4.682;2022-09-16T20:28:53;13.00;99.90
37998;DHT22;24079;51.824;4.682;2022-09-16T20:31:22;13.00;99.90
37998;DHT22;24079;51.824;4.682;2022-09-16T20:33:48;13.00;99.90
37998;DHT22;24079;51.824;4.682;2022-09-16T20:36:16;13.10;99.90